Time;durP1;ratioP1;P1;durP2;ratioP2;P2;SDS_P1;SDS_P2;PMS_P1;PMS_P2;Temp;Humidity;BMP_temperature;BMP_pressure;BME280_temperature;BME280_humidity;BME280_pressure;Samples;Min_cycle;Max_cycle;Signal;HPM_P1;HPM_P2
2023/03/22 00:01:19;;;;;;;14.47;13.27;;;11.70;99.90;;;;;;5094606;28;21175;-70
2023/03/22 00:03:46;;;;;;;15.70;14.30;;;11.60;99.90;;;;;;5098207;28;20895;-69
2023/03/22 00:06:15;;;;;;;15.57;14.27;;;11.60;99.90;;;;;;5092807;28;20501;-70
2023/03/22 00:08:44;;;;;;;16.07;14.63;;;11.60;99.90;;;;;;5096953;28;20469;-69
2023/03/22 00:11:12;;;;;;;16.80;15.30;;;11.60;99.90;;;;;;5095499;28;20980;-69
2023/03/22 00:13:41;;;;;;;14.80;13.67;;;11.60;99.90;;;;;;5090195;28;20556;-71
2023/03/22 00:16:09;;;;;;;15.73;14.47;;;11.60;99.90;;;;;;5092022;28;20512;-69
2023/03/22 00:18:37;;;;;;;15.63;14.37;;;11.60;99.90;;;;;;5092310;28;20463;-69
2023/03/22 00:21:04;;;;;;;15.20;13.80;;;11.50;99.90;;;;;;5095305;28;20446;-69
2023/03/22 00:23:31;;;;;;;16.00;14.00;;;11.50;99.90;;;;;;5093190;28;20518;-71
2023/03/22 00:25:59;;;;;;;15.47;14.00;;;11.50;99.90;;;;;;5088268;28;21347;-70
2023/03/22 00:28:27;;;;;;;15.53;14.20;;;11.50;99.90;;;;;;5101409;28;20520;-69
2023/03/22 00:30:55;;;;;;;15.33;14.03;;;11.50;99.90;;;;;;5095179;28;20473;-70
2023/03/22 00:33:22;;;;;;;16.30;14.80;;;11.40;99.90;;;;;;5093682;28;21021;-70
2023/03/22 00:35:50;;;;;;;14.80;13.40;;;11.40;99.90;;;;;;5091440;28;20492;-71
2023/03/22 00:38:17;;;;;;;14.30;13.00;;;11.40;99.90;;;;;;5088025;28;20485;-69
2023/03/22 00:40:44;;;;;;;15.10;13.83;;;11.30;99.90;;;;;;5096602;28;20514;-71
2023/03/22 00:43:14;;;;;;;14.60;13.23;;;11.20;99.90;;;;;;5100820;28;20482;-70
2023/03/22 00:45:41;;;;;;;15.37;14.00;;;11.20;99.90;;;;;;5092921;28;20469;-69
2023/03/22 00:48:09;;;;;;;15.57;14.07;;;11.20;99.90;;;;;;5088851;28;20480;-69
2023/03/22 00:50:37;;;;;;;14.60;13.30;;;11.10;99.90;;;;;;5089547;28;20478;-71
2023/03/22 00:53:04;;;;;;;18.27;13.33;;;11.10;99.90;;;;;;5090346;28;20461;-70
2023/03/22 00:55:32;;;;;;;14.33;13.13;;;11.00;99.90;;;;;;5088230;28;20461;-71
2023/03/22 00:57:59;;;;;;;14.97;13.43;;;10.90;99.90;;;;;;5089924;28;20453;-69
2023/03/22 01:00:28;;;;;;;15.40;13.87;;;10.90;99.90;;;;;;5091196;28;20536;-69
2023/03/22 01:02:58;;;;;;;16.07;12.90;;;10.90;99.90;;;;;;5092990;28;20791;-70
2023/03/22 01:05:27;;;;;;;15.13;13.20;;;10.90;99.90;;;;;;5098939;28;20481;-69
2023/03/22 01:07:54;;;;;;;13.30;12.20;;;10.90;99.90;;;;;;5086891;28;20460;-70
2023/03/22 01:10:21;;;;;;;14.57;13.27;;;10.80;99.90;;;;;;5091871;28;20454;-70
2023/03/22 01:12:48;;;;;;;14.33;12.87;;;10.70;99.90;;;;;;5087302;28;21008;-70
2023/03/22 01:15:15;;;;;;;14.60;12.60;;;10.70;99.90;;;;;;5095344;28;20453;-69
2023/03/22 01:17:43;;;;;;;14.57;13.07;;;10.60;99.90;;;;;;5095911;28;20991;-69
2023/03/22 01:20:11;;;;;;;13.77;12.33;;;10.50;99.90;;;;;;5091222;28;21037;-70
2023/03/22 01:22:38;;;;;;;15.53;13.77;;;10.50;99.90;;;;;;5091149;28;20463;-71
2023/03/22 01:25:06;;;;;;;13.30;11.97;;;10.50;99.90;;;;;;5091815;28;20468;-69
2023/03/22 01:27:34;;;;;;;13.00;11.90;;;10.40;99.90;;;;;;5089177;28;20543;-70
2023/03/22 01:30:01;;;;;;;14.33;13.03;;;10.30;99.90;;;;;;5095942;28;20487;-70
2023/03/22 01:32:28;;;;;;;12.67;11.53;;;10.20;99.90;;;;;;5093356;28;20461;-69
2023/03/22 01:34:57;;;;;;;13.47;12.07;;;10.20;99.90;;;;;;5094239;28;20469;-71
2023/03/22 01:37:26;;;;;;;13.40;12.13;;;10.10;99.90;;;;;;5096118;28;20486;-71
2023/03/22 01:39:53;;;;;;;14.97;13.47;;;10.10;99.90;;;;;;5088906;28;22298;-70
2023/03/22 01:42:21;;;;;;;12.83;11.57;;;10.10;99.90;;;;;;5089351;28;20496;-69
2023/03/22 01:45:27;;;;;;;13.03;11.73;;;10.00;99.90;;;;;;5091683;28;20460;-70
2023/03/22 01:47:57;;;;;;;12.20;11.00;;;10.10;99.90;;;;;;5092349;28;20473;-71
2023/03/22 01:50:26;;;;;;;12.40;11.20;;;10.20;99.90;;;;;;5092955;28;20457;-69
2023/03/22 01:52:57;;;;;;;12.67;11.47;;;10.20;99.90;;;;;;5094429;28;20461;-69
2023/03/22 01:55:26;;;;;;;13.97;12.57;;;10.20;99.90;;;;;;5087783;28;20457;-70
2023/03/22 01:57:55;;;;;;;12.70;11.47;;;10.20;99.90;;;;;;5088536;28;20552;-70
2023/03/22 02:00:22;;;;;;;13.27;12.00;;;10.10;99.90;;;;;;5090977;28;20461;-69
2023/03/22 02:02:51;;;;;;;17.00;12.20;;;10.10;99.90;;;;;;5095128;28;20457;-69
2023/03/22 02:05:21;;;;;;;13.57;12.17;;;10.10;99.90;;;;;;5092698;28;20464;-69
2023/03/22 02:07:50;;;;;;;12.90;11.53;;;10.10;99.90;;;;;;5091291;28;20999;-69
2023/03/22 02:10:19;;;;;;;12.03;10.93;;;10.00;99.90;;;;;;5089437;28;20466;-70
2023/03/22 02:12:59;;;;;;;14.43;11.37;;;10.00;99.90;;;;;;5094927;28;20446;-71
2023/03/22 02:15:32;;;;;;;12.00;11.00;;;10.00;99.90;;;;;;5093316;28;20979;-69
2023/03/22 02:18:15;;;;;;;12.67;11.40;;;10.00;99.90;;;;;;5100229;28;20515;-69
2023/03/22 02:21:35;;;;;;;12.13;10.83;;;10.00;99.90;;;;;;5096443;28;20453;-71
2023/03/22 02:24:36;;;;;;;12.33;10.87;;;9.90;99.90;;;;;;5063012;28;20462;-69
2023/03/22 02:27:22;;;;;;;12.13;10.87;;;9.80;99.90;;;;;;5100712;28;20998;-71
2023/03/22 02:29:56;;;;;;;22.23;11.33;;;9.80;99.90;;;;;;5100982;28;20954;-69
2023/03/22 02:32:48;;;;;;;14.60;11.67;;;9.80;99.90;;;;;;5087455;28;20989;-70
2023/03/22 02:35:33;;;;;;;10.63;9.73;;;9.80;99.90;;;;;;5092485;28;20473;-71
2023/03/22 02:38:24;;;;;;;14.33;10.57;;;9.80;99.90;;;;;;5099033;28;20530;-69
2023/03/22 02:40:58;;;;;;;11.50;10.40;;;9.80;99.90;;;;;;5091398;28;20511;-69
2023/03/22 02:43:37;;;;;;;11.83;10.27;;;9.70;99.90;;;;;;5092489;28;20489;-69
2023/03/22 02:46:08;;;;;;;10.83;9.93;;;9.70;99.90;;;;;;5094496;28;20461;-69
2023/03/22 02:48:41;;;;;;;14.07;10.80;;;9.70;99.90;;;;;;5091518;28;20525;-69
2023/03/22 02:51:13;;;;;;;10.87;9.87;;;9.70;99.90;;;;;;5092107;28;20461;-70
2023/03/22 02:53:45;;;;;;;10.83;9.83;;;9.80;99.90;;;;;;5101111;28;20454;-69
2023/03/22 02:56:18;;;;;;;10.40;9.30;;;9.80;99.90;;;;;;5095167;28;20969;-70
2023/03/22 02:58:50;;;;;;;14.00;9.40;;;9.80;99.90;;;;;;5096632;28;20913;-70
2023/03/22 03:01:21;;;;;;;10.27;9.37;;;9.80;99.90;;;;;;5096742;28;20838;-70
2023/03/22 03:03:54;;;;;;;11.93;9.60;;;9.80;99.90;;;;;;5094756;28;20465;-70
2023/03/22 03:06:24;;;;;;;11.00;10.00;;;9.80;99.90;;;;;;5099338;28;20466;-69
2023/03/22 03:08:53;;;;;;;10.43;9.47;;;9.70;99.90;;;;;;5096631;28;21015;-69
2023/03/22 03:11:22;;;;;;;9.10;8.30;;;9.80;99.90;;;;;;5094618;28;21035;-69
2023/03/22 03:13:50;;;;;;;9.17;8.37;;;9.80;99.90;;;;;;5090461;28;20465;-69
2023/03/22 03:16:20;;;;;;;9.57;8.70;;;9.80;99.90;;;;;;5095110;28;20468;-69
2023/03/22 03:18:52;;;;;;;10.60;8.50;;;9.80;99.90;;;;;;5091241;28;21009;-70
2023/03/22 03:21:31;;;;;;;10.03;8.20;;;9.70;99.90;;;;;;5097568;28;20457;-69
2023/03/22 03:24:13;;;;;;;14.40;9.73;;;9.70;99.90;;;;;;5101379;28;20469;-70
2023/03/22 03:26:49;;;;;;;9.57;8.67;;;9.70;99.90;;;;;;5097033;28;20465;-70
2023/03/22 03:29:22;;;;;;;9.97;8.87;;;9.70;99.90;;;;;;5092204;28;20628;-69
2023/03/22 03:31:54;;;;;;;10.60;8.97;;;9.70;99.90;;;;;;5092643;28;20467;-69
2023/03/22 03:34:26;;;;;;;9.23;8.43;;;9.70;99.90;;;;;;5097886;28;20515;-71
2023/03/22 03:36:57;;;;;;;12.63;8.40;;;9.70;99.90;;;;;;5092722;28;20481;-71
2023/03/22 03:39:28;;;;;;;9.23;8.23;;;9.70;99.90;;;;;;5088151;28;20464;-69
2023/03/22 03:41:57;;;;;;;8.57;7.77;;;9.70;99.90;;;;;;5094779;28;20494;-69
2023/03/22 03:44:24;;;;;;;12.03;8.80;;;9.60;99.90;;;;;;5096846;28;20462;-71
2023/03/22 03:46:52;;;;;;;10.03;8.33;;;9.70;99.90;;;;;;5094443;28;20465;-69
2023/03/22 03:49:23;;;;;;;10.57;7.60;;;9.60;99.90;;;;;;5089712;28;20576;-69
2023/03/22 03:51:53;;;;;;;10.23;8.40;;;9.60;99.90;;;;;;5089028;28;20492;-70
2023/03/22 03:54:20;;;;;;;7.77;7.00;;;9.60;99.90;;;;;;5090268;28;20568;-70
2023/03/22 03:56:47;;;;;;;8.97;8.07;;;9.60;99.90;;;;;;5098019;28;21015;-70
2023/03/22 03:59:16;;;;;;;10.37;7.90;;;9.50;99.90;;;;;;5098629;27;20985;-69
2023/03/22 04:01:49;;;;;;;8.53;7.73;;;9.50;99.90;;;;;;5088564;28;20466;-69
2023/03/22 04:04:17;;;;;;;8.50;7.80;;;9.50;99.90;;;;;;5092352;28;20938;-71
2023/03/22 04:06:44;;;;;;;11.33;8.20;;;9.50;99.90;;;;;;5088164;28;20700;-70
2023/03/22 04:09:11;;;;;;;11.97;8.23;;;9.50;99.90;;;;;;5092582;28;20887;-69
2023/03/22 04:11:37;;;;;;;10.47;8.23;;;9.50;99.90;;;;;;5088285;28;20497;-69
2023/03/22 04:14:05;;;;;;;12.23;8.63;;;9.60;99.90;;;;;;5099037;28;20955;-70
2023/03/22 04:16:33;;;;;;;9.80;8.90;;;9.50;99.90;;;;;;5092014;28;20470;-70
2023/03/22 04:19:00;;;;;;;8.47;7.73;;;9.60;99.90;;;;;;5094062;28;20461;-71
2023/03/22 04:21:27;;;;;;;9.90;8.90;;;9.60;99.90;;;;;;5087938;28;20470;-71
2023/03/22 04:23:54;;;;;;;7.80;7.07;;;9.70;99.90;;;;;;5097959;28;20471;-71
2023/03/22 04:26:21;;;;;;;10.33;8.20;;;9.70;99.90;;;;;;5096817;28;20526;-70
2023/03/22 04:28:48;;;;;;;9.93;8.23;;;9.70;99.90;;;;;;5085893;28;20999;-69
2023/03/22 04:31:17;;;;;;;8.77;7.80;;;9.70;99.90;;;;;;5088768;28;20978;-69
2023/03/22 04:33:46;;;;;;;8.87;8.00;;;9.70;99.90;;;;;;5097215;28;21018;-69
2023/03/22 04:36:16;;;;;;;9.60;7.90;;;9.70;99.90;;;;;;5086552;28;20462;-69
2023/03/22 04:38:43;;;;;;;8.73;8.03;;;9.70;99.90;;;;;;5089065;28;20504;-69
2023/03/22 04:41:10;;;;;;;9.03;8.20;;;9.70;99.90;;;;;;5098633;28;20462;-72
2023/03/22 04:43:38;;;;;;;9.57;8.70;;;9.70;99.90;;;;;;5095384;28;20769;-71
2023/03/22 04:46:05;;;;;;;8.10;7.40;;;9.60;99.90;;;;;;5090412;28;20490;-69
2023/03/22 04:48:32;;;;;;;11.47;8.53;;;9.60;99.90;;;;;;5089184;28;20462;-70
2023/03/22 04:51:02;;;;;;;9.60;8.40;;;9.60;99.90;;;;;;5092976;28;20790;-70
2023/03/22 04:53:29;;;;;;;11.73;8.23;;;9.60;99.90;;;;;;5091410;28;20454;-70
2023/03/22 04:55:57;;;;;;;9.73;8.43;;;9.60;99.90;;;;;;5099797;28;20634;-70
2023/03/22 04:58:24;;;;;;;12.10;9.27;;;9.60;99.90;;;;;;5092928;28;20493;-69
2023/03/22 05:00:52;;;;;;;15.23;9.93;;;9.50;99.90;;;;;;5087861;28;21418;-70
2023/03/22 05:03:20;;;;;;;9.47;8.67;;;9.50;99.90;;;;;;5093654;28;20457;-70
2023/03/22 05:05:52;;;;;;;11.10;9.40;;;9.60;99.90;;;;;;5090247;28;20541;-72
2023/03/22 05:08:20;;;;;;;14.93;8.47;;;9.60;99.90;;;;;;5093777;28;20454;-72
2023/03/22 05:10:48;;;;;;;11.37;8.10;;;9.60;99.90;;;;;;5097927;28;20462;-70
2023/03/22 05:13:15;;;;;;;11.40;8.93;;;9.50;99.90;;;;;;5088586;28;20898;-70
2023/03/22 05:15:42;;;;;;;9.67;8.73;;;9.50;99.90;;;;;;5088109;28;20458;-71
2023/03/22 05:18:09;;;;;;;10.40;8.70;;;9.50;99.90;;;;;;5090365;28;20506;-71
2023/03/22 05:20:36;;;;;;;10.03;9.13;;;9.60;99.90;;;;;;5089307;28;20464;-70
2023/03/22 05:23:03;;;;;;;10.13;9.10;;;9.70;99.90;;;;;;5089698;28;20470;-70
2023/03/22 05:25:33;;;;;;;11.33;9.90;;;9.70;99.90;;;;;;5085851;28;20995;-71
2023/03/22 05:28:00;;;;;;;10.40;8.70;;;9.70;99.90;;;;;;5089220;28;20516;-70
2023/03/22 05:30:28;;;;;;;9.07;8.30;;;9.70;99.90;;;;;;5090325;28;20450;-71
2023/03/22 05:33:01;;;;;;;10.63;9.30;;;9.90;99.90;;;;;;5092673;28;20477;-70
2023/03/22 05:35:28;;;;;;;9.97;9.07;;;10.00;99.90;;;;;;5093871;28;21105;-70
2023/03/22 05:37:55;;;;;;;10.03;8.90;;;10.20;99.90;;;;;;5093720;28;20489;-72
2023/03/22 05:40:22;;;;;;;9.33;8.40;;;10.20;99.90;;;;;;5091108;28;20464;-71
2023/03/22 05:42:51;;;;;;;8.80;8.00;;;10.20;99.90;;;;;;5097136;28;20491;-72
2023/03/22 05:45:18;;;;;;;9.43;8.50;;;10.30;99.90;;;;;;5088330;28;20473;-70
2023/03/22 05:47:45;;;;;;;10.10;9.00;;;10.30;99.90;;;;;;5091339;28;21800;-72
2023/03/22 05:50:15;;;;;;;11.50;9.50;;;10.40;99.90;;;;;;5097490;28;20952;-71
2023/03/22 05:52:43;;;;;;;10.30;9.27;;;10.40;99.90;;;;;;5095220;28;20828;-70
2023/03/22 05:55:11;;;;;;;9.80;8.90;;;10.50;99.90;;;;;;5090380;28;20946;-71
2023/03/22 05:57:38;;;;;;;10.43;8.33;;;10.60;99.90;;;;;;5091053;28;20496;-70
2023/03/22 06:00:12;;;;;;;9.83;8.77;;;10.60;99.90;;;;;;5093054;28;20459;-70
2023/03/22 06:02:39;;;;;;;10.40;7.67;;;10.70;99.90;;;;;;5091801;28;20576;-70
2023/03/22 06:05:07;;;;;;;11.90;8.70;;;10.70;99.90;;;;;;5093472;28;20465;-70
2023/03/22 06:07:34;;;;;;;8.97;8.27;;;10.70;99.90;;;;;;5092534;28;20497;-71
2023/03/22 06:10:01;;;;;;;15.07;8.47;;;10.70;99.90;;;;;;5089754;28;20450;-70
2023/03/22 06:12:28;;;;;;;8.37;7.57;;;10.70;99.90;;;;;;5089928;28;20461;-70
2023/03/22 06:14:54;;;;;;;14.10;9.80;;;10.80;99.90;;;;;;5093168;28;20469;-70
2023/03/22 06:17:23;;;;;;;13.97;9.57;;;10.80;99.90;;;;;;5085693;28;20839;-70
2023/03/22 06:19:53;;;;;;;8.90;8.20;;;10.90;99.90;;;;;;5088186;28;21190;-70
2023/03/22 06:22:20;;;;;;;11.80;9.10;;;10.80;99.90;;;;;;5093079;28;20461;-70
2023/03/22 06:24:47;;;;;;;13.03;9.50;;;10.90;99.90;;;;;;5091641;28;20462;-70
2023/03/22 06:27:14;;;;;;;8.87;8.07;;;11.00;99.90;;;;;;5091274;28;20481;-70
2023/03/22 06:29:42;;;;;;;11.47;9.13;;;11.00;99.90;;;;;;5092200;28;20490;-69
2023/03/22 06:32:11;;;;;;;11.63;9.60;;;11.00;99.90;;;;;;5087341;28;20462;-69
2023/03/22 06:34:39;;;;;;;10.13;9.10;;;11.10;99.90;;;;;;5087354;28;20552;-72
2023/03/22 06:37:06;;;;;;;9.63;8.83;;;11.20;99.90;;;;;;5088328;28;20515;-70
2023/03/22 06:39:33;;;;;;;11.33;9.80;;;11.20;99.90;;;;;;5090608;28;20453;-70
2023/03/22 06:42:00;;;;;;;10.90;9.97;;;11.20;99.90;;;;;;5095127;28;20849;-70
2023/03/22 06:44:26;;;;;;;11.10;9.97;;;11.20;99.90;;;;;;5090148;28;20465;-70
2023/03/22 06:46:53;;;;;;;11.77;10.77;;;11.30;99.90;;;;;;5089752;28;20469;-72
2023/03/22 06:49:20;;;;;;;11.33;10.20;;;11.40;99.90;;;;;;5095804;28;20522;-70
2023/03/22 06:51:49;;;;;;;11.30;10.20;;;11.50;99.90;;;;;;5090246;28;20932;-72
2023/03/22 06:54:16;;;;;;;12.37;11.37;;;11.50;99.90;;;;;;5089428;28;20547;-70
2023/03/22 06:56:43;;;;;;;12.90;10.57;;;11.60;99.90;;;;;;5086516;28;20526;-70
2023/03/22 06:59:11;;;;;;;11.63;10.83;;;11.60;99.90;;;;;;5095646;28;20540;-70
2023/03/22 07:01:38;;;;;;;12.27;11.20;;;11.70;99.90;;;;;;5090100;28;20841;-70
2023/03/22 07:04:05;;;;;;;12.30;11.30;;;11.70;99.90;;;;;;5093242;28;20572;-70
2023/03/22 07:06:32;;;;;;;12.40;11.40;;;11.80;99.90;;;;;;5088496;28;20469;-69
2023/03/22 07:09:01;;;;;;;15.03;11.50;;;11.90;99.90;;;;;;5091266;28;20466;-71
2023/03/22 07:11:28;;;;;;;13.00;11.80;;;12.00;99.90;;;;;;5093205;28;20548;-70
2023/03/22 07:13:55;;;;;;;13.80;12.30;;;12.00;99.90;;;;;;5091497;28;20647;-70
2023/03/22 07:16:22;;;;;;;13.23;12.00;;;12.10;99.90;;;;;;5093585;28;20451;-70
2023/03/22 07:18:49;;;;;;;13.07;11.90;;;12.10;99.90;;;;;;5091883;28;20485;-70
2023/03/22 07:21:16;;;;;;;14.03;12.80;;;12.10;99.90;;;;;;5090184;28;20469;-70
2023/03/22 07:23:43;;;;;;;13.83;12.83;;;12.10;99.90;;;;;;5082029;28;20942;-71
2023/03/22 07:26:13;;;;;;;13.33;12.30;;;12.10;99.90;;;;;;5089507;28;20470;-71
2023/03/22 07:28:40;;;;;;;18.73;13.07;;;12.10;99.90;;;;;;5099227;28;20893;-70
2023/03/22 07:31:10;;;;;;;13.53;12.53;;;12.00;99.90;;;;;;5094701;28;20453;-72
2023/03/22 07:33:37;;;;;;;13.43;12.37;;;12.10;99.90;;;;;;5096685;28;21050;-70
2023/03/22 07:36:05;;;;;;;15.47;14.30;;;12.10;99.90;;;;;;5091841;28;20473;-70
2023/03/22 07:38:32;;;;;;;14.47;13.23;;;12.00;99.90;;;;;;5092725;28;20486;-70
2023/03/22 07:40:58;;;;;;;13.73;12.93;;;12.00;99.90;;;;;;5086312;28;20465;-70
2023/03/22 07:43:27;;;;;;;14.43;13.30;;;12.10;99.90;;;;;;5094047;28;20611;-70
2023/03/22 07:45:53;;;;;;;14.30;13.20;;;12.10;99.90;;;;;;5086418;28;20469;-70
2023/03/22 07:48:22;;;;;;;14.27;13.10;;;12.10;99.90;;;;;;5088045;28;20468;-71
2023/03/22 07:50:49;;;;;;;14.63;13.50;;;12.20;99.90;;;;;;5090549;28;20465;-72
2023/03/22 07:53:16;;;;;;;14.30;13.33;;;12.20;99.90;;;;;;5085872;28;20841;-71
2023/03/22 07:55:42;;;;;;;14.10;13.00;;;12.20;99.90;;;;;;5082082;28;20461;-70
2023/03/22 07:58:09;;;;;;;14.47;13.17;;;12.10;99.90;;;;;;5089550;28;20531;-72
2023/03/22 08:00:38;;;;;;;13.50;12.63;;;12.10;99.90;;;;;;5091853;28;20858;-71
2023/03/22 08:03:05;;;;;;;14.90;13.83;;;12.20;99.90;;;;;;5093080;28;20802;-72
2023/03/22 08:05:32;;;;;;;13.67;12.87;;;12.10;99.90;;;;;;5091436;28;20473;-70
2023/03/22 08:07:59;;;;;;;13.70;12.93;;;12.10;99.90;;;;;;5083636;28;20544;-70
2023/03/22 08:10:26;;;;;;;14.50;13.50;;;12.10;99.90;;;;;;5084624;28;20466;-71
2023/03/22 08:12:53;;;;;;;13.90;13.00;;;12.20;99.90;;;;;;5091533;28;20446;-71
2023/03/22 08:15:20;;;;;;;15.00;13.80;;;12.20;99.90;;;;;;5089667;28;20593;-70
2023/03/22 08:17:50;;;;;;;15.63;13.50;;;12.30;99.90;;;;;;5090169;28;20649;-70
2023/03/22 08:20:17;;;;;;;14.47;13.67;;;12.30;99.90;;;;;;5086179;28;20498;-73
2023/03/22 08:22:45;;;;;;;15.87;14.70;;;12.30;99.90;;;;;;5087176;28;20892;-71
2023/03/22 08:25:13;;;;;;;14.67;13.67;;;12.40;99.90;;;;;;5087101;28;20561;-71
2023/03/22 08:27:40;;;;;;;14.57;13.63;;;12.40;99.90;;;;;;5088792;28;21030;-70
2023/03/22 08:30:08;;;;;;;15.37;14.13;;;12.30;99.90;;;;;;5086903;28;20547;-71
2023/03/22 08:32:36;;;;;;;14.70;13.80;;;12.40;99.90;;;;;;5089295;28;20460;-71
2023/03/22 08:35:07;;;;;;;15.07;13.93;;;12.40;99.90;;;;;;5091278;28;20985;-71
2023/03/22 08:37:35;;;;;;;16.33;14.97;;;12.50;99.90;;;;;;5086713;28;20458;-71
2023/03/22 08:40:05;;;;;;;15.00;13.97;;;12.40;99.90;;;;;;5089697;28;20851;-71
2023/03/22 08:42:32;;;;;;;16.83;14.27;;;12.50;99.90;;;;;;5091215;28;20480;-72
2023/03/22 08:44:59;;;;;;;16.17;14.90;;;12.60;99.90;;;;;;5090338;28;20501;-72
2023/03/22 08:47:26;;;;;;;16.00;14.30;;;12.80;99.90;;;;;;5089518;28;20804;-73
2023/03/22 08:49:53;;;;;;;17.53;15.80;;;12.90;99.90;;;;;;5085277;28;20723;-70
2023/03/22 08:52:21;;;;;;;15.50;14.60;;;12.90;99.90;;;;;;5084703;28;20496;-71
2023/03/22 08:54:50;;;;;;;16.23;14.70;;;13.00;99.90;;;;;;5087070;28;21355;-71
2023/03/22 08:57:17;;;;;;;15.40;14.60;;;13.00;99.90;;;;;;5087136;28;20648;-73
2023/03/22 08:59:43;;;;;;;15.60;14.70;;;13.10;99.90;;;;;;5087031;28;20485;-73
2023/03/22 09:02:10;;;;;;;15.60;14.70;;;13.30;99.90;;;;;;5086590;28;20469;-71
2023/03/22 09:04:37;;;;;;;16.67;15.13;;;13.60;99.90;;;;;;5085357;28;20469;-71
2023/03/22 09:07:04;;;;;;;17.20;15.80;;;13.80;99.90;;;;;;5085827;28;20536;-71
2023/03/22 09:09:32;;;;;;;17.13;15.63;;;13.90;99.90;;;;;;5084368;28;20473;-71
2023/03/22 09:11:59;;;;;;;16.50;15.43;;;14.00;99.90;;;;;;5090651;28;20471;-71
2023/03/22 09:14:26;;;;;;;16.10;14.90;;;13.80;99.90;;;;;;5090182;28;20852;-71
2023/03/22 09:16:53;;;;;;;16.30;15.13;;;13.90;99.90;;;;;;5085952;28;20995;-71
2023/03/22 09:19:20;;;;;;;17.30;16.00;;;14.00;99.90;;;;;;5093779;28;20484;-72
2023/03/22 09:21:47;;;;;;;16.17;15.20;;;13.90;99.90;;;;;;5091905;28;20454;-71
2023/03/22 09:24:14;;;;;;;17.50;16.30;;;13.80;99.90;;;;;;5086364;28;20528;-72
2023/03/22 09:26:42;;;;;;;16.33;15.33;;;13.70;99.90;;;;;;5087738;28;20457;-71
2023/03/22 09:29:10;;;;;;;16.57;15.27;;;13.70;99.90;;;;;;5093081;28;20489;-70
2023/03/22 09:31:37;;;;;;;18.70;16.53;;;14.00;99.90;;;;;;5091639;28;20464;-71
2023/03/22 09:34:03;;;;;;;16.67;15.37;;;14.10;99.90;;;;;;5091907;28;20960;-74
2023/03/22 09:36:31;;;;;;;17.27;16.17;;;14.10;99.90;;;;;;5085243;28;20469;-74
2023/03/22 09:38:58;;;;;;;17.07;15.97;;;14.10;99.90;;;;;;5087866;28;20473;-71
2023/03/22 09:41:36;;;;;;;16.73;15.53;;;14.20;99.90;;;;;;5085870;28;20502;-73
2023/03/22 09:44:07;;;;;;;16.83;15.53;;;14.40;99.90;;;;;;5089619;28;20449;-71
2023/03/22 09:46:37;;;;;;;17.00;15.90;;;14.30;99.90;;;;;;5088549;28;20475;-71
2023/03/22 09:49:07;;;;;;;17.60;16.13;;;14.50;99.90;;;;;;5090291;28;20465;-73
2023/03/22 09:51:39;;;;;;;17.63;16.30;;;15.00;99.90;;;;;;5090329;28;20464;-71
2023/03/22 09:54:13;;;;;;;17.23;16.00;;;14.80;99.90;;;;;;5085905;28;20462;-72
2023/03/22 09:56:40;;;;;;;17.27;16.07;;;14.60;99.90;;;;;;5084443;28;20936;-72
2023/03/22 09:59:15;;;;;;;17.33;16.00;;;14.80;99.90;;;;;;5086012;28;20482;-71
2023/03/22 10:01:46;;;;;;;17.20;15.80;;;14.90;99.90;;;;;;5088947;28;22453;-74
2023/03/22 10:04:25;;;;;;;17.07;15.87;;;14.80;99.90;;;;;;5088144;28;20473;-72
2023/03/22 10:07:00;;;;;;;17.57;16.47;;;15.00;99.90;;;;;;5084879;28;20464;-71
2023/03/22 10:09:35;;;;;;;17.70;16.50;;;15.20;99.90;;;;;;5091204;28;20522;-71
2023/03/22 10:12:11;;;;;;;16.80;15.87;;;15.40;99.90;;;;;;5087268;28;20530;-71
2023/03/22 10:14:42;;;;;;;17.40;16.40;;;15.10;99.90;;;;;;5091004;28;20457;-72
2023/03/22 10:17:14;;;;;;;17.27;16.17;;;15.10;99.90;;;;;;5089923;28;20477;-72
2023/03/22 10:19:49;;;;;;;17.40;16.40;;;15.10;99.90;;;;;;5093200;28;20492;-71
2023/03/22 10:22:18;;;;;;;17.30;16.20;;;14.90;99.90;;;;;;5085718;28;20464;-74
2023/03/22 10:24:48;;;;;;;17.20;16.03;;;14.80;99.90;;;;;;5085629;28;20784;-71
2023/03/22 10:27:17;;;;;;;17.63;16.53;;;14.70;99.90;;;;;;5086718;28;20477;-71
2023/03/22 10:29:48;;;;;;;17.83;16.63;;;14.60;99.90;;;;;;5084324;28;20466;-71
2023/03/22 10:32:16;;;;;;;17.30;16.20;;;14.60;99.90;;;;;;5091549;28;20944;-72
2023/03/22 10:34:45;;;;;;;17.40;16.00;;;14.80;99.90;;;;;;5092992;28;20462;-71
2023/03/22 10:37:15;;;;;;;18.27;16.70;;;14.80;99.90;;;;;;5089833;28;21007;-71
2023/03/22 10:39:45;;;;;;;17.90;16.50;;;14.90;99.90;;;;;;5088092;28;20588;-74
2023/03/22 10:42:15;;;;;;;17.20;16.27;;;14.70;99.90;;;;;;5095267;28;20493;-70
2023/03/22 10:44:49;;;;;;;18.73;17.20;;;14.50;99.90;;;;;;5094436;28;20456;-72
2023/03/22 10:47:17;;;;;;;17.90;16.40;;;14.50;99.90;;;;;;5092000;28;20955;-71
2023/03/22 10:49:48;;;;;;;18.30;16.70;;;14.50;99.90;;;;;;5091897;28;20469;-73
2023/03/22 10:52:31;;;;;;;18.30;16.63;;;14.50;99.90;;;;;;5086057;28;20544;-71
2023/03/22 10:54:59;;;;;;;17.63;16.27;;;14.80;99.90;;;;;;5085954;28;20870;-74
2023/03/22 10:57:26;;;;;;;17.40;16.17;;;15.00;99.90;;;;;;5095841;28;20684;-73
2023/03/22 10:59:56;;;;;;;18.43;17.03;;;15.20;99.90;;;;;;5090822;28;20612;-72
2023/03/22 11:02:26;;;;;;;18.90;17.37;;;15.20;99.90;;;;;;5090845;28;20558;-71
2023/03/22 11:04:55;;;;;;;17.47;16.37;;;14.90;99.90;;;;;;5090271;28;20498;-71
2023/03/22 11:07:32;;;;;;;18.57;16.73;;;14.80;99.90;;;;;;5083394;28;20472;-71
2023/03/22 11:10:11;;;;;;;17.87;16.43;;;14.60;99.90;;;;;;5091893;28;20620;-70
2023/03/22 11:12:49;;;;;;;16.43;15.43;;;14.50;99.90;;;;;;5093188;28;20834;-70
2023/03/22 11:15:25;;;;;;;18.03;16.73;;;14.50;99.90;;;;;;5088946;28;20914;-70
2023/03/22 11:17:53;;;;;;;17.07;15.70;;;14.50;99.90;;;;;;5090566;28;20457;-71
2023/03/22 11:20:21;;;;;;;17.00;15.80;;;14.50;99.90;;;;;;5088355;28;20489;-70
2023/03/22 11:22:50;;;;;;;17.33;16.23;;;14.50;99.90;;;;;;5088887;28;20462;-71
2023/03/22 11:25:21;;;;;;;17.13;15.93;;;14.70;99.90;;;;;;5090512;28;20491;-70
2023/03/22 11:27:53;;;;;;;18.00;16.60;;;14.50;99.90;;;;;;5094234;28;20482;-74
2023/03/22 11:30:25;;;;;;;17.27;16.10;;;14.70;99.90;;;;;;5082224;28;20454;-70
2023/03/22 11:33:02;;;;;;;17.03;16.00;;;14.80;99.90;;;;;;5091005;28;20504;-70
2023/03/22 11:35:30;;;;;;;17.40;16.20;;;14.70;99.90;;;;;;5092136;28;20531;-70
2023/03/22 11:38:01;;;;;;;17.60;16.40;;;14.60;99.90;;;;;;5090460;28;20599;-73
2023/03/22 11:40:30;;;;;;;18.73;17.00;;;14.80;99.90;;;;;;5087640;28;20570;-70
2023/03/22 11:43:19;;;;;;;17.90;16.80;;;14.90;99.90;;;;;;5086709;28;20620;-73
2023/03/22 11:45:51;;;;;;;19.87;18.17;;;14.70;99.90;;;;;;5087534;28;20892;-70
2023/03/22 11:48:21;;;;;;;17.63;16.53;;;14.70;99.90;;;;;;5088436;28;20476;-71
2023/03/22 11:50:48;;;;;;;17.63;16.47;;;14.70;99.90;;;;;;5087522;28;20449;-70
2023/03/22 11:53:18;;;;;;;18.30;17.20;;;14.70;99.90;;;;;;5084932;28;20462;-71
2023/03/22 11:55:48;;;;;;;18.67;17.10;;;14.70;99.90;;;;;;5086999;28;20465;-72
2023/03/22 11:58:26;;;;;;;17.30;16.30;;;14.70;99.90;;;;;;5086463;28;20462;-71
2023/03/22 12:00:57;;;;;;;16.80;15.80;;;14.90;99.90;;;;;;5090558;28;20614;-71
2023/03/22 12:03:27;;;;;;;17.00;15.80;;;15.10;99.90;;;;;;5090528;28;20481;-70
2023/03/22 12:05:55;;;;;;;18.13;16.93;;;14.90;99.90;;;;;;5088321;28;20817;-70
2023/03/22 12:08:27;;;;;;;17.37;16.37;;;14.80;99.90;;;;;;5092440;28;20538;-72
2023/03/22 12:11:01;;;;;;;17.63;16.30;;;14.90;99.90;;;;;;5087601;28;20460;-71
2023/03/22 12:13:46;;;;;;;17.30;16.30;;;14.90;99.90;;;;;;5082854;28;21249;-71
2023/03/22 12:16:19;;;;;;;18.00;16.20;;;14.80;99.90;;;;;;5081525;28;20453;-72
2023/03/22 12:18:51;;;;;;;16.83;15.63;;;14.70;99.90;;;;;;5089804;28;20457;-71
2023/03/22 12:21:18;;;;;;;17.63;16.30;;;14.60;99.90;;;;;;5084133;28;20500;-70
2023/03/22 12:24:02;;;;;;;16.40;15.40;;;14.60;99.90;;;;;;5087717;28;20751;-74
2023/03/22 12:26:31;;;;;;;17.53;16.20;;;14.50;99.90;;;;;;5086246;28;21066;-72
2023/03/22 12:29:01;;;;;;;17.43;16.23;;;14.50;99.90;;;;;;5086835;28;21082;-70
2023/03/22 12:31:32;;;;;;;16.70;15.70;;;14.50;99.90;;;;;;5088455;28;20462;-70
2023/03/22 12:34:02;;;;;;;16.80;15.50;;;14.40;99.90;;;;;;5085591;28;20470;-71
2023/03/22 12:36:34;;;;;;;17.07;15.67;;;14.40;99.90;;;;;;5084725;28;20516;-70
2023/03/22 12:39:04;;;;;;;16.80;15.60;;;14.30;99.90;;;;;;5088556;28;20553;-71
2023/03/22 12:41:35;;;;;;;16.97;15.70;;;14.30;99.90;;;;;;5088151;28;20464;-71
2023/03/22 12:44:05;;;;;;;16.90;15.70;;;14.40;99.90;;;;;;5089382;28;20464;-72
2023/03/22 12:46:40;;;;;;;16.43;15.43;;;14.50;99.90;;;;;;5085995;28;20465;-72